Monday, January 21, 2019, 5:07 PM EST
Back to Local

KDAW, Skyhaven Airport

Location: Rochester, NH, United States Lat: 43.283
Local Time: 5:07 PM EST (22:07 GMT) Lon: -70.917
Time Zone: US/Eastern Elev: 321 ft

Show me the last for .
Show Decoded

2019-01-21 16:51 METAR KDAW 212151Z AUTO 30021G31KT 10SM BKN050 OVC070 M18/M25 A2983 RMK AO2 PK
                 WND 31031/2151 UPB11E20 SLP105 P0000 T11781250 =
2019-01-21 15:51 METAR KDAW 212051Z AUTO 31012G24KT 9SM BKN065 OVC080 M17/M24 A2979 RMK AO2 PK
                 WND 31030/2040 SLP091 T11721239 53028 =
2019-01-21 14:51 METAR KDAW 211951Z AUTO 31020G26KT 9SM OVC055 M17/M24 A2975 RMK AO2 PK WND
                 31027/1936 SLP079 T11721239 =
2019-01-21 13:51 METAR KDAW 211851Z AUTO 29011G25KT 240V310 8SM OVC060 M17/M24 A2972 RMK AO2 PK
                 WND 29026/1833 SLP069 T11671239 =
2019-01-21 12:51 METAR KDAW 211751Z AUTO 30016G23KT 10SM BKN044 OVC050 M17/M24 A2970 RMK AO2 PK
                 WND 30026/1735 UPB14E40 SLP062 P0000 60000 T11671244 11167 21178 55002 =
2019-01-21 11:51 METAR KDAW 211651Z AUTO 30013G18KT 10SM BKN049 BKN055 OVC080 M17/M24 A2970 RMK
                 AO2 UPB13E28SNE02 SLP062 P0000 T11671239 =
2019-01-21 10:51 METAR KDAW 211551Z AUTO 30011G26KT 250V320 3SM -SN BKN038 OVC047 M17/M23 A2971
                 RMK AO2 PK WND 30026/1545 SLP064 P0000 T11721233 =
2019-01-21 10:32 METAR KDAW 211532Z AUTO 30012G20KT 2 1/2SM -SN BKN036 OVC047 M18/M23 A2971 RMK
                 AO2 P0000 T11781233 =
2019-01-21 09:51 METAR KDAW 211451Z AUTO 30014G21KT 1 1/2SM -SN BKN037 OVC044 M18/M23 A2970 RMK
                 AO2 SNB03 SLP062 P0000 60000 T11781228 52038 =
2019-01-21 09:16 METAR KDAW 211416Z AUTO 30013G21KT 1 3/4SM -SN SCT043 OVC055 M18/M23 A2967 RMK
                 AO2 SNB03 P0000 T11781233 =
2019-01-21 08:51 METAR KDAW 211351Z AUTO 29010G17KT 7SM OVC060 M17/M24 A2966 RMK AO2 SLP047
                 T11721239 =
2019-01-21 07:51 METAR KDAW 211251Z AUTO 30010G19KT 10SM OVC055 M17/M23 A2963 RMK AO2 SLP036
                 T11721233 =
2019-01-21 06:51 METAR KDAW 211151Z AUTO 29010G18KT 10SM OVC050 M17/M23 A2959 RMK AO2 SLP022
                 70025 T11671233 11161 21172 53023 =
2019-01-21 05:51 METAR KDAW 211051Z AUTO 29009G18KT 240V310 10SM OVC048 M17/M23 A2956 RMK AO2
                 SLP012 T11671233 =
2019-01-21 04:51 METAR KDAW 210951Z AUTO 30012G17KT 10SM OVC041 M17/M23 A2954 RMK AO2 SLP005
                 T11721233 =
2019-01-21 03:51 METAR KDAW 210851Z AUTO 29008KT 10SM OVC037 M17/M23 A2952 RMK AO2 SLP999
                 T11671233 51021 =
2019-01-21 02:51 METAR KDAW 210751Z AUTO 29009G16KT 10SM OVC043 M17/M23 A2950 RMK AO2 SLP993
                 T11671228 =
2019-01-21 01:51 METAR KDAW 210651Z AUTO 30010KT 240V310 10SM OVC041 M17/M23 A2949 RMK AO2 SLP989
                 T11671228 =
2019-01-21 00:51 METAR KDAW 210551Z AUTO 30009G16KT 230V310 10SM OVC037 M16/M22 A2945 RMK AO2
                 SLP978 T11611222 11067 21161 51026 =
2019-01-20 23:51 METAR KDAW 210451Z AUTO 30009G15KT 250V310 10SM BKN037 M16/M22 A2944 RMK AO2
                 SLP974 T11561217 410671156 =
2019-01-20 22:51 METAR KDAW 210351Z AUTO 29007G15KT 10SM BKN038 M14/M21 A2941 RMK AO2 SLP962
                 T11441206 =
2019-01-20 21:51 METAR KDAW 210251Z AUTO 30012G23KT 10SM CLR M13/M19 A2938 RMK AO2 SLP951
                 T11331189 51030 =
2019-01-20 20:51 METAR KDAW 210151Z AUTO 29011G18KT 240V310 10SM SCT025 OVC055 M11/M16 A2934 RMK
                 AO2 SLP938 T11061156 =
2019-01-20 20:44 METAR KDAW 210144Z AUTO 29012G17KT 10SM SCT025 OVC055 M11/M15 A2934 RMK AO2
                 T11061150 =
2019-01-20 20:20 METAR KDAW 210120Z AUTO 29008KT 10SM BKN025 OVC060 M09/M13 A2933 RMK AO2
                 T10941133 =
2019-01-20 20:06 METAR KDAW 210106Z AUTO 28007G16KT 210V310 10SM SCT019 SCT024 OVC060 M09/M13
                 A2933 RMK AO2 T10891128 =
2019-01-20 19:51 METAR KDAW 210051Z AUTO 28007G14KT 230V320 10SM BKN018 BKN060 M08/M11 A2932 RMK
                 AO2 SLP931 T10781106 =
2019-01-20 19:27 METAR KDAW 210027Z AUTO 30009KT 10SM BKN017 M07/M08 A2930 RMK AO2 T10671083 =
2019-01-20 18:51 METAR KDAW 202351Z AUTO 30007KT 10SM FEW044 OVC055 M07/M08 A2928 RMK AO2
                 SNB19E37 SLP919 P0000 60006 I6003 T10671083 11067 21111 56008 =
2019-01-20 17:51 METAR KDAW 202251Z AUTO 32009KT 6SM BR SCT019 OVC040 M07/M09 A2929 RMK AO2
                 UPB32E46FZRAB01E23SNB23E32 SLP922 P0000 I1001 T10721089 =
2019-01-20 17:28 METAR KDAW 202228Z AUTO 33010KT 4SM -SN BR SCT013 OVC018 M08/M09 A2930 RMK AO2
                 FZRAB01E23SNB23 P0000 I1001 T10781089 =

Support USWX by starting your Amazon purchase here.